sensor_id;sensor_type;location;lat;lon;timestamp;pressure;altitude;pressure_sealevel;temperature;humidity
13709;BME280;54933;51.908;7.730;2022-09-09T00:01:43;100203.47;;;23.69;76.51
13709;BME280;54933;51.908;7.730;2022-09-09T00:04:34;100199.13;;;23.68;76.53
13709;BME280;54933;51.908;7.730;2022-09-09T00:12:17;100195.41;;;23.74;76.51
13709;BME280;54933;51.908;7.730;2022-09-09T00:15:02;100195.41;;;23.74;76.38
13709;BME280;54933;51.908;7.730;2022-09-09T00:20:12;100196.25;;;23.75;76.42
13709;BME280;54933;51.908;7.730;2022-09-09T00:22:46;100195.91;;;23.71;76.17
13709;BME280;54933;51.908;7.730;2022-09-09T00:28:22;100199.97;;;23.69;76.39
13709;BME280;54933;51.908;7.730;2022-09-09T00:30:48;100201.84;;;23.68;76.23
13709;BME280;54933;51.908;7.730;2022-09-09T00:33:16;100202.88;;;23.67;76.46
13709;BME280;54933;51.908;7.730;2022-09-09T00:35:55;100193.94;;;23.67;76.56
13709;BME280;54933;51.908;7.730;2022-09-09T00:38:33;100185.56;;;23.68;76.53
13709;BME280;54933;51.908;7.730;2022-09-09T00:41:21;100193.13;;;23.66;76.57
13709;BME280;54933;51.908;7.730;2022-09-09T00:43:57;100188.28;;;23.68;76.93
13709;BME280;54933;51.908;7.730;2022-09-09T00:46:33;100169.78;;;23.65;77.16
13709;BME280;54933;51.908;7.730;2022-09-09T00:49:19;100169.78;;;23.65;77.04
13709;BME280;54933;51.908;7.730;2022-09-09T00:55:03;100174.88;;;23.62;77.45
13709;BME280;54933;51.908;7.730;2022-09-09T00:57:34;100183.53;;;23.59;77.79
13709;BME280;54933;51.908;7.730;2022-09-09T01:05:20;100181.53;;;23.54;77.75
13709;BME280;54933;51.908;7.730;2022-09-09T01:07:50;100192.47;;;23.59;78.18
13709;BME280;54933;51.908;7.730;2022-09-09T01:10:29;100181.59;;;23.59;77.92
13709;BME280;54933;51.908;7.730;2022-09-09T01:13:02;100182.44;;;23.60;78.03
13709;BME280;54933;51.908;7.730;2022-09-09T01:15:31;100178.44;;;23.62;78.14
13709;BME280;54933;51.908;7.730;2022-09-09T01:18:07;100181.13;;;23.62;78.12
13709;BME280;54933;51.908;7.730;2022-09-09T01:20:47;100174.63;;;23.63;78.04
13709;BME280;54933;51.908;7.730;2022-09-09T01:23:43;100178.47;;;23.67;78.05
13709;BME280;54933;51.908;7.730;2022-09-09T01:26:34;100181.13;;;23.62;78.00
13709;BME280;54933;51.908;7.730;2022-09-09T01:29:00;100178.66;;;23.61;78.00
13709;BME280;54933;51.908;7.730;2022-09-09T01:31:33;100178.44;;;23.62;78.27
13709;BME280;54933;51.908;7.730;2022-09-09T01:34:00;100188.69;;;23.60;78.00
13709;BME280;54933;51.908;7.730;2022-09-09T01:36:38;100199.28;;;23.62;78.15
13709;BME280;54933;51.908;7.730;2022-09-09T01:39:04;100193.03;;;23.61;78.13
13709;BME280;54933;51.908;7.730;2022-09-09T01:41:30;100190.81;;;23.58;77.88
13709;BME280;54933;51.908;7.730;2022-09-09T01:43:55;100187.03;;;23.59;77.83
13709;BME280;54933;51.908;7.730;2022-09-09T01:46:22;100188.44;;;23.62;77.92
13709;BME280;54933;51.908;7.730;2022-09-09T01:48:51;100190.31;;;23.61;77.86
13709;BME280;54933;51.908;7.730;2022-09-09T01:51:18;100190.81;;;23.58;77.67
13709;BME280;54933;51.908;7.730;2022-09-09T01:53:43;100186.22;;;23.59;77.68
13709;BME280;54933;51.908;7.730;2022-09-09T02:01:42;100190.81;;;23.58;77.83
13709;BME280;54933;51.908;7.730;2022-09-09T02:04:20;100193.88;;;23.62;77.88
13709;BME280;54933;51.908;7.730;2022-09-09T02:06:50;100188.69;;;23.60;77.66
13709;BME280;54933;51.908;7.730;2022-09-09T02:09:23;100195.75;;;23.61;77.88
13709;BME280;54933;51.908;7.730;2022-09-09T02:11:57;100199.53;;;23.60;77.83
13709;BME280;54933;51.908;7.730;2022-09-09T02:14:29;100199.22;;;23.57;77.84
13709;BME280;54933;51.908;7.730;2022-09-09T02:17:03;100197.63;;;23.61;77.92
13709;BME280;54933;51.908;7.730;2022-09-09T02:19:35;100195.66;;;23.56;77.92
13709;BME280;54933;51.908;7.730;2022-09-09T02:22:02;100200.59;;;23.59;77.90
13709;BME280;54933;51.908;7.730;2022-09-09T02:24:30;100197.34;;;23.57;78.07
13709;BME280;54933;51.908;7.730;2022-09-09T02:26:59;100195.59;;;23.51;78.01
13709;BME280;54933;51.908;7.730;2022-09-09T02:29:35;100201.75;;;23.47;77.91
13709;BME280;54933;51.908;7.730;2022-09-09T02:32:04;100199.38;;;23.50;78.17
13709;BME280;54933;51.908;7.730;2022-09-09T02:34:35;100194.47;;;23.47;78.34
13709;BME280;54933;51.908;7.730;2022-09-09T02:37:03;100195.50;;;23.46;78.37
13709;BME280;54933;51.908;7.730;2022-09-09T02:39:29;100189.63;;;23.49;78.25
13709;BME280;54933;51.908;7.730;2022-09-09T02:41:54;100193.63;;;23.47;78.28
13709;BME280;54933;51.908;7.730;2022-09-09T02:44:19;100188.78;;;23.49;78.17
13709;BME280;54933;51.908;7.730;2022-09-09T02:57:47;100193.78;;;23.40;78.20
13709;BME280;54933;51.908;7.730;2022-09-09T03:00:13;100199.22;;;23.40;78.30
13709;BME280;54933;51.908;7.730;2022-09-09T03:02:38;100201.59;;;23.37;78.04
13709;BME280;54933;51.908;7.730;2022-09-09T03:05:05;100212.09;;;23.33;78.24
13709;BME280;54933;51.908;7.730;2022-09-09T03:07:30;100204.53;;;23.35;78.22
13709;BME280;54933;51.908;7.730;2022-09-09T03:09:56;100210.56;;;23.37;78.27
13709;BME280;54933;51.908;7.730;2022-09-09T03:12:21;100205.13;;;23.37;78.26
13709;BME280;54933;51.908;7.730;2022-09-09T03:14:46;100205.97;;;23.38;78.11
13709;BME280;54933;51.908;7.730;2022-09-09T03:17:12;100206.75;;;23.38;78.00
13709;BME280;54933;51.908;7.730;2022-09-09T03:19:37;100206.75;;;23.38;78.02
13709;BME280;54933;51.908;7.730;2022-09-09T03:22:03;100200.03;;;23.41;78.06
13709;BME280;54933;51.908;7.730;2022-09-09T03:24:29;100202.50;;;23.42;78.03
13709;BME280;54933;51.908;7.730;2022-09-09T03:26:55;100194.13;;;23.44;77.75
13709;BME280;54933;51.908;7.730;2022-09-09T03:29:20;100194.13;;;23.44;78.02
13709;BME280;54933;51.908;7.730;2022-09-09T03:31:46;100194.38;;;23.42;77.74
13709;BME280;54933;51.908;7.730;2022-09-09T03:34:11;100201.19;;;23.45;77.69
13709;BME280;54933;51.908;7.730;2022-09-09T03:36:39;100197.09;;;23.42;77.62
13709;BME280;54933;51.908;7.730;2022-09-09T03:39:06;100198.72;;;23.43;77.83
13709;BME280;54933;51.908;7.730;2022-09-09T03:41:31;100189.53;;;23.44;77.93
13709;BME280;54933;51.908;7.730;2022-09-09T03:43:57;100186.56;;;23.46;77.83
13709;BME280;54933;51.908;7.730;2022-09-09T03:46:25;100191.16;;;23.45;77.66
13709;BME280;54933;51.908;7.730;2022-09-09T03:48:51;100192.00;;;23.46;77.42
13709;BME280;54933;51.908;7.730;2022-09-09T03:51:18;100188.19;;;23.47;77.60
13709;BME280;54933;51.908;7.730;2022-09-09T03:53:43;100185.75;;;23.45;77.54
13709;BME280;54933;51.908;7.730;2022-09-09T03:56:09;100186.81;;;23.44;77.68
13709;BME280;54933;51.908;7.730;2022-09-09T03:58:35;100185.16;;;23.43;77.46
13709;BME280;54933;51.908;7.730;2022-09-09T04:01:04;100183.03;;;23.45;77.68
13709;BME280;54933;51.908;7.730;2022-09-09T04:03:29;100190.31;;;23.45;77.62
13709;BME280;54933;51.908;7.730;2022-09-09T04:05:56;100185.75;;;23.45;77.42
13709;BME280;54933;51.908;7.730;2022-09-09T04:08:22;100186.31;;;23.47;77.58
13709;BME280;54933;51.908;7.730;2022-09-09T04:10:50;100186.06;;;23.49;77.52
13709;BME280;54933;51.908;7.730;2022-09-09T04:13:17;100186.91;;;23.49;77.35
13709;BME280;54933;51.908;7.730;2022-09-09T04:15:44;100181.69;;;23.48;77.46
13709;BME280;54933;51.908;7.730;2022-09-09T04:18:10;100187.44;;;23.51;77.40
13709;BME280;54933;51.908;7.730;2022-09-09T04:20:37;100183.03;;;23.45;77.37
13709;BME280;54933;51.908;7.730;2022-09-09T04:23:02;100188.69;;;23.44;77.49
13709;BME280;54933;51.908;7.730;2022-09-09T04:25:28;100182.44;;;23.43;77.46
13709;BME280;54933;51.908;7.730;2022-09-09T04:27:55;100182.69;;;23.42;77.52
13709;BME280;54933;51.908;7.730;2022-09-09T04:30:20;100182.84;;;23.35;77.64
13709;BME280;54933;51.908;7.730;2022-09-09T04:32:46;100188.78;;;23.32;77.91
13709;BME280;54933;51.908;7.730;2022-09-09T04:35:11;100184.91;;;23.28;77.79
13709;BME280;54933;51.908;7.730;2022-09-09T04:37:36;100189.16;;;23.24;77.91
13709;BME280;54933;51.908;7.730;2022-09-09T04:40:02;100195.66;;;23.23;78.17
13709;BME280;54933;51.908;7.730;2022-09-09T04:42:27;100187.69;;;23.33;78.08
13709;BME280;54933;51.908;7.730;2022-09-09T04:44:52;100198.25;;;23.30;78.07
13709;BME280;54933;51.908;7.730;2022-09-09T04:47:19;100201.63;;;23.25;78.00
13709;BME280;54933;51.908;7.730;2022-09-09T04:49:44;100204.84;;;23.22;78.17
13709;BME280;54933;51.908;7.730;2022-09-09T04:52:09;100207.06;;;23.25;78.15
13709;BME280;54933;51.908;7.730;2022-09-09T04:54:35;100199.88;;;23.31;78.23
13709;BME280;54933;51.908;7.730;2022-09-09T04:57:00;100206.59;;;23.28;78.00
13709;BME280;54933;51.908;7.730;2022-09-09T04:59:25;100214.03;;;23.21;78.32
13709;BME280;54933;51.908;7.730;2022-09-09T05:01:51;100212.00;;;23.28;78.30
13709;BME280;54933;51.908;7.730;2022-09-09T05:04:16;100208.75;;;23.26;78.02
13709;BME280;54933;51.908;7.730;2022-09-09T05:06:41;100202.47;;;23.26;78.14
13709;BME280;54933;51.908;7.730;2022-09-09T05:09:07;100202.13;;;23.22;78.09
13709;BME280;54933;51.908;7.730;2022-09-09T05:11:33;100195.75;;;23.28;78.52
13709;BME280;54933;51.908;7.730;2022-09-09T05:14:01;100203.88;;;23.28;78.34
13709;BME280;54933;51.908;7.730;2022-09-09T05:16:27;100201.63;;;23.25;78.23
13709;BME280;54933;51.908;7.730;2022-09-09T05:18:52;100205.41;;;23.24;78.12
13709;BME280;54933;51.908;7.730;2022-09-09T05:21:19;100189.53;;;23.28;78.19
13709;BME280;54933;51.908;7.730;2022-09-09T05:23:45;100196.81;;;23.27;78.27
13709;BME280;54933;51.908;7.730;2022-09-09T05:26:19;100185.22;;;23.32;78.24
13709;BME280;54933;51.908;7.730;2022-09-09T05:28:45;100192.97;;;23.40;78.29
13709;BME280;54933;51.908;7.730;2022-09-09T05:31:12;100196.34;;;23.47;78.23
13709;BME280;54933;51.908;7.730;2022-09-09T05:33:39;100188.69;;;23.44;78.13
13709;BME280;54933;51.908;7.730;2022-09-09T05:36:11;100195.91;;;23.38;77.91
13709;BME280;54933;51.908;7.730;2022-09-09T05:38:38;100193.44;;;23.37;77.91
13709;BME280;54933;51.908;7.730;2022-09-09T05:41:05;100193.44;;;23.37;78.14
13709;BME280;54933;51.908;7.730;2022-09-09T05:43:30;100191.91;;;23.41;78.10
13709;BME280;54933;51.908;7.730;2022-09-09T05:46:11;100194.63;;;23.41;78.21
13709;BME280;54933;51.908;7.730;2022-09-09T05:48:38;100191.06;;;23.40;78.28
13709;BME280;54933;51.908;7.730;2022-09-09T05:51:06;100194.13;;;23.44;78.30
13709;BME280;54933;51.908;7.730;2022-09-09T05:53:32;100201.44;;;23.43;78.25
13709;BME280;54933;51.908;7.730;2022-09-09T05:56:04;100194.38;;;23.42;78.14
13709;BME280;54933;51.908;7.730;2022-09-09T05:58:33;100192.16;;;23.39;78.31
13709;BME280;54933;51.908;7.730;2022-09-09T06:03:27;100198.81;;;23.20;78.83
13709;BME280;54933;51.908;7.730;2022-09-09T06:06:01;100198.44;;;23.28;79.13
13709;BME280;54933;51.908;7.730;2022-09-09T06:08:26;100196.41;;;23.35;79.04
13709;BME280;54933;51.908;7.730;2022-09-09T06:10:52;100185.00;;;23.33;78.92
13709;BME280;54933;51.908;7.730;2022-09-09T06:13:17;100187.78;;;23.38;78.83
13709;BME280;54933;51.908;7.730;2022-09-09T06:15:52;100190.81;;;23.42;78.82
13709;BME280;54933;51.908;7.730;2022-09-09T06:18:18;100191.66;;;23.42;78.54
13709;BME280;54933;51.908;7.730;2022-09-09T06:20:58;100197.16;;;23.47;78.40
13709;BME280;54933;51.908;7.730;2022-09-09T06:23:26;100194.47;;;23.47;78.30
13709;BME280;54933;51.908;7.730;2022-09-09T06:25:59;100193.97;;;23.50;78.42
13709;BME280;54933;51.908;7.730;2022-09-09T06:28:25;100199.22;;;23.57;78.57
13709;BME280;54933;51.908;7.730;2022-09-09T06:31:00;100198.22;;;23.63;78.45
13709;BME280;54933;51.908;7.730;2022-09-09T06:33:26;100192.28;;;23.66;78.40
13709;BME280;54933;51.908;7.730;2022-09-09T06:35:52;100198.03;;;23.69;78.25
13709;BME280;54933;51.908;7.730;2022-09-09T06:38:18;100198.03;;;23.69;78.26
13709;BME280;54933;51.908;7.730;2022-09-09T06:40:51;100192.13;;;23.72;78.08
13709;BME280;54933;51.908;7.730;2022-09-09T06:43:16;100201.91;;;23.73;78.22
13709;BME280;54933;51.908;7.730;2022-09-09T06:45:42;100197.28;;;23.74;78.07
13709;BME280;54933;51.908;7.730;2022-09-09T06:48:07;100189.97;;;23.74;77.98
13709;BME280;54933;51.908;7.730;2022-09-09T06:50:34;100199.53;;;23.77;78.50
13709;BME280;54933;51.908;7.730;2022-09-09T06:52:59;100205.75;;;23.77;78.21
13709;BME280;54933;51.908;7.730;2022-09-09T06:55:25;100207.41;;;23.78;78.22
13709;BME280;54933;51.908;7.730;2022-09-09T06:57:50;100206.66;;;23.83;78.38
13709;BME280;54933;51.908;7.730;2022-09-09T07:00:16;100218.09;;;23.85;78.33
13709;BME280;54933;51.908;7.730;2022-09-09T07:02:42;100213.97;;;23.82;78.36
13709;BME280;54933;51.908;7.730;2022-09-09T07:05:07;100213.97;;;23.82;78.69
13709;BME280;54933;51.908;7.730;2022-09-09T07:07:33;100208.56;;;23.82;78.46
13709;BME280;54933;51.908;7.730;2022-09-09T07:09:58;100208.56;;;23.82;78.44
13709;BME280;54933;51.908;7.730;2022-09-09T07:12:23;100210.22;;;23.83;78.57
13709;BME280;54933;51.908;7.730;2022-09-09T07:14:49;100209.72;;;23.86;78.60
13709;BME280;54933;51.908;7.730;2022-09-09T07:17:14;100220.06;;;23.89;78.64
13709;BME280;54933;51.908;7.730;2022-09-09T07:19:39;100213.00;;;23.88;78.73
13709;BME280;54933;51.908;7.730;2022-09-09T07:22:05;100215.13;;;23.86;78.40
13709;BME280;54933;51.908;7.730;2022-09-09T07:24:31;100215.94;;;23.87;78.66
13709;BME280;54933;51.908;7.730;2022-09-09T07:26:56;100211.09;;;23.89;78.71
13709;BME280;54933;51.908;7.730;2022-09-09T07:29:22;100217.84;;;23.86;78.65
13709;BME280;54933;51.908;7.730;2022-09-09T07:31:47;100215.94;;;23.87;78.71
13709;BME280;54933;51.908;7.730;2022-09-09T07:34:13;100218.19;;;23.90;78.82
13709;BME280;54933;51.908;7.730;2022-09-09T07:36:39;100214.63;;;23.89;78.81
13709;BME280;54933;51.908;7.730;2022-09-09T07:39:12;100222.84;;;23.94;78.87
13709;BME280;54933;51.908;7.730;2022-09-09T07:41:44;100219.88;;;23.96;78.67
13709;BME280;54933;51.908;7.730;2022-09-09T07:44:15;100216.94;;;23.97;78.79
13709;BME280;54933;51.908;7.730;2022-09-09T07:46:41;100211.53;;;23.97;78.80
13709;BME280;54933;51.908;7.730;2022-09-09T07:49:08;100217.53;;;23.99;78.70
13709;BME280;54933;51.908;7.730;2022-09-09T07:51:36;100217.78;;;23.98;78.68
13709;BME280;54933;51.908;7.730;2022-09-09T07:54:04;100214.25;;;23.97;78.70
13709;BME280;54933;51.908;7.730;2022-09-09T07:56:30;100218.59;;;23.98;78.76
13709;BME280;54933;51.908;7.730;2022-09-09T07:58:57;100218.13;;;24.01;78.98
13709;BME280;54933;51.908;7.730;2022-09-09T08:01:35;100213.47;;;24.02;78.78
13709;BME280;54933;51.908;7.730;2022-09-09T08:04:07;100212.44;;;24.03;79.15
13709;BME280;54933;51.908;7.730;2022-09-09T08:06:39;100221.38;;;24.03;79.13
13709;BME280;54933;51.908;7.730;2022-09-09T08:09:06;100214.06;;;24.04;79.36
13709;BME280;54933;51.908;7.730;2022-09-09T08:11:32;100217.59;;;24.04;79.39
13709;BME280;54933;51.908;7.730;2022-09-09T08:13:58;100220.31;;;24.04;79.46
13709;BME280;54933;51.908;7.730;2022-09-09T08:16:29;100223.59;;;24.06;79.58
13709;BME280;54933;51.908;7.730;2022-09-09T08:18:56;100224.66;;;24.05;79.74
13709;BME280;54933;51.908;7.730;2022-09-09T08:21:24;100220.06;;;24.06;79.89
13709;BME280;54933;51.908;7.730;2022-09-09T08:23:51;100224.41;;;24.07;79.86
13709;BME280;54933;51.908;7.730;2022-09-09T08:26:20;100224.41;;;24.07;80.09
13709;BME280;54933;51.908;7.730;2022-09-09T08:28:50;100228.53;;;24.09;79.94
13709;BME280;54933;51.908;7.730;2022-09-09T08:31:21;100230.16;;;24.10;80.39
13709;BME280;54933;51.908;7.730;2022-09-09T08:33:48;100230.16;;;24.10;80.51
13709;BME280;54933;51.908;7.730;2022-09-09T08:36:21;100226.63;;;24.10;80.46
13709;BME280;54933;51.908;7.730;2022-09-09T08:38:54;100224.75;;;24.10;80.57
13709;BME280;54933;51.908;7.730;2022-09-09T08:57:54;100232.56;;;24.07;80.54
13709;BME280;54933;51.908;7.730;2022-09-09T09:00:21;100227.13;;;24.07;80.52
13709;BME280;54933;51.908;7.730;2022-09-09T09:05:31;100230.69;;;24.07;80.21
13709;BME280;54933;51.908;7.730;2022-09-09T09:10:47;100228.78;;;24.08;79.98
13709;BME280;54933;51.908;7.730;2022-09-09T09:13:57;100241.03;;;24.10;79.62
13709;BME280;54933;51.908;7.730;2022-09-09T09:18:49;100234.22;;;24.08;79.61
13709;BME280;54933;51.908;7.730;2022-09-09T09:21:21;100233.97;;;24.09;79.86
13709;BME280;54933;51.908;7.730;2022-09-09T09:23:57;100231.25;;;24.09;79.86
13709;BME280;54933;51.908;7.730;2022-09-09T09:26:35;100242.91;;;24.10;79.85
13709;BME280;54933;51.908;7.730;2022-09-09T09:29:10;100242.91;;;24.10;79.83
13709;BME280;54933;51.908;7.730;2022-09-09T09:31:37;100238.31;;;24.10;79.67
13709;BME280;54933;51.908;7.730;2022-09-09T09:34:03;100241.03;;;24.10;79.68
13709;BME280;54933;51.908;7.730;2022-09-09T09:36:40;100238.31;;;24.10;79.55
13709;BME280;54933;51.908;7.730;2022-09-09T09:39:07;100243.75;;;24.10;79.64
13709;BME280;54933;51.908;7.730;2022-09-09T09:41:36;100244.56;;;24.11;79.38
13709;BME280;54933;51.908;7.730;2022-09-09T09:44:04;100239.94;;;24.11;79.32
13709;BME280;54933;51.908;7.730;2022-09-09T09:46:31;100242.41;;;24.13;79.50
13709;BME280;54933;51.908;7.730;2022-09-09T09:49:04;100235.34;;;24.12;79.42
13709;BME280;54933;51.908;7.730;2022-09-09T09:51:34;100238.63;;;24.14;79.00
13709;BME280;54933;51.908;7.730;2022-09-09T09:56:31;100239.47;;;24.15;78.53
13709;BME280;54933;51.908;7.730;2022-09-09T09:58:58;100235.66;;;24.16;77.98
13709;BME280;54933;51.908;7.730;2022-09-09T10:01:26;100228.09;;;24.18;77.60
13709;BME280;54933;51.908;7.730;2022-09-09T10:03:55;100228.09;;;24.18;77.50
13709;BME280;54933;51.908;7.730;2022-09-09T10:06:33;100236.00;;;24.19;77.89
13709;BME280;54933;51.908;7.730;2022-09-09T10:08:59;100216.41;;;24.17;77.89
13709;BME280;54933;51.908;7.730;2022-09-09T10:14:11;100213.94;;;24.16;77.36
13709;BME280;54933;51.908;7.730;2022-09-09T10:22:36;100221.00;;;24.17;78.35
13709;BME280;54933;51.908;7.730;2022-09-09T10:25:17;100224.81;;;24.16;78.61
13709;BME280;54933;51.908;7.730;2022-09-09T10:27:55;100221.00;;;24.17;78.42
13709;BME280;54933;51.908;7.730;2022-09-09T10:33:10;100221.00;;;24.17;79.08
13709;BME280;54933;51.908;7.730;2022-09-09T10:38:30;100217.25;;;24.18;79.45
13709;BME280;54933;51.908;7.730;2022-09-09T10:41:09;100218.03;;;24.18;79.47
13709;BME280;54933;51.908;7.730;2022-09-09T10:46:39;100211.81;;;24.18;79.59
13709;BME280;54933;51.908;7.730;2022-09-09T10:52:02;100211.56;;;24.19;79.41
13709;BME280;54933;51.908;7.730;2022-09-09T10:59:49;100210.72;;;24.19;78.90
13709;BME280;54933;51.908;7.730;2022-09-09T11:02:30;100205.03;;;24.20;78.78
13709;BME280;54933;51.908;7.730;2022-09-09T11:08:10;100190.41;;;24.21;79.01
13709;BME280;54933;51.908;7.730;2022-09-09T11:10:45;100191.22;;;24.22;79.28
13709;BME280;54933;51.908;7.730;2022-09-09T11:13:25;100196.66;;;24.22;79.17
13709;BME280;54933;51.908;7.730;2022-09-09T11:16:01;100193.94;;;24.22;79.05
13709;BME280;54933;51.908;7.730;2022-09-09T11:18:29;100200.19;;;24.22;79.44
13709;BME280;54933;51.908;7.730;2022-09-09T11:21:00;100198.31;;;24.23;79.25
13709;BME280;54933;51.908;7.730;2022-09-09T11:23:40;100202.91;;;24.22;79.24
13709;BME280;54933;51.908;7.730;2022-09-09T11:26:12;100204.53;;;24.23;79.30
13709;BME280;54933;51.908;7.730;2022-09-09T11:28:56;100196.66;;;24.22;79.20
13709;BME280;54933;51.908;7.730;2022-09-09T11:32:08;100202.91;;;24.22;78.99
13709;BME280;54933;51.908;7.730;2022-09-09T11:35:07;100207.25;;;24.23;78.94
13709;BME280;54933;51.908;7.730;2022-09-09T11:37:53;100196.72;;;23.88;74.38
13709;BME280;54933;51.908;7.730;2022-09-09T11:40:24;100199.22;;;23.73;71.57
13709;BME280;54933;51.908;7.730;2022-09-09T11:43:46;100200.50;;;23.71;69.92
13709;BME280;54933;51.908;7.730;2022-09-09T11:45:52;100199.53;;;23.60;68.92
13709;BME280;54933;51.908;7.730;2022-09-09T11:51:07;100203.47;;;23.69;68.06
13709;BME280;54933;51.908;7.730;2022-09-09T11:53:34;100203.53;;;23.74;67.49
13709;BME280;54933;51.908;7.730;2022-09-09T11:56:02;100207.66;;;23.77;67.09
13709;BME280;54933;51.908;7.730;2022-09-09T11:59:18;100206.25;;;23.74;66.89
13709;BME280;54933;51.908;7.730;2022-09-09T12:04:17;100203.97;;;23.99;68.44
13709;BME280;54933;51.908;7.730;2022-09-09T12:06:46;100199.41;;;24.05;69.50
13709;BME280;54933;51.908;7.730;2022-09-09T12:09:21;100199.97;;;24.07;70.25
13709;BME280;54933;51.908;7.730;2022-09-09T12:11:49;100202.44;;;24.08;70.74
13709;BME280;54933;51.908;7.730;2022-09-09T12:17:23;100189.44;;;24.10;71.60
13709;BME280;54933;51.908;7.730;2022-09-09T12:20:03;100189.19;;;24.12;71.80
13709;BME280;54933;51.908;7.730;2022-09-09T12:22:45;100190.03;;;24.13;72.19
13709;BME280;54933;51.908;7.730;2022-09-09T12:25:43;100196.03;;;24.15;72.54
13709;BME280;54933;51.908;7.730;2022-09-09T12:28:18;100193.31;;;24.15;72.65
13709;BME280;54933;51.908;7.730;2022-09-09T12:33:40;100187.06;;;24.14;72.84
13709;BME280;54933;51.908;7.730;2022-09-09T12:36:13;100196.03;;;24.15;72.69
13709;BME280;54933;51.908;7.730;2022-09-09T12:38:42;100184.34;;;24.14;72.53
13709;BME280;54933;51.908;7.730;2022-09-09T12:41:22;100192.22;;;24.16;72.71
13709;BME280;54933;51.908;7.730;2022-09-09T12:43:48;100189.53;;;24.16;73.21
13709;BME280;54933;51.908;7.730;2022-09-09T12:48:52;100185.19;;;24.15;72.92
13709;BME280;54933;51.908;7.730;2022-09-09T12:51:23;100188.94;;;24.13;72.99
13709;BME280;54933;51.908;7.730;2022-09-09T12:53:50;100186.22;;;24.13;73.17
13709;BME280;54933;51.908;7.730;2022-09-09T12:56:20;100182.47;;;24.15;73.14
13709;BME280;54933;51.908;7.730;2022-09-09T12:58:49;100184.34;;;24.14;73.35
13709;BME280;54933;51.908;7.730;2022-09-09T13:01:26;100174.31;;;24.15;73.34
13709;BME280;54933;51.908;7.730;2022-09-09T13:03:53;100179.75;;;24.15;73.28
13709;BME280;54933;51.908;7.730;2022-09-09T13:06:24;100174.31;;;24.15;73.62
13709;BME280;54933;51.908;7.730;2022-09-09T13:08:51;100175.13;;;24.15;73.60
13709;BME280;54933;51.908;7.730;2022-09-09T13:11:39;100167.81;;;24.16;73.89
13709;BME280;54933;51.908;7.730;2022-09-09T13:14:04;100165.09;;;24.16;74.13
13709;BME280;54933;51.908;7.730;2022-09-09T13:16:33;100175.13;;;24.15;74.10
13709;BME280;54933;51.908;7.730;2022-09-09T13:19:00;100176.78;;;24.16;74.37
13709;BME280;54933;51.908;7.730;2022-09-09T13:21:37;100175.13;;;24.15;74.55
13709;BME280;54933;51.908;7.730;2022-09-09T13:24:27;100176.19;;;24.14;74.85
13709;BME280;54933;51.908;7.730;2022-09-09T13:26:56;100180.53;;;24.15;74.69
13709;BME280;54933;51.908;7.730;2022-09-09T13:29:22;100185.19;;;24.15;74.50
13709;BME280;54933;51.908;7.730;2022-09-09T13:31:48;100206.91;;;24.15;74.35
13709;BME280;54933;51.908;7.730;2022-09-09T13:34:29;100199.56;;;24.15;74.28
13709;BME280;54933;51.908;7.730;2022-09-09T13:37:02;100193.88;;;24.17;74.25
13709;BME280;54933;51.908;7.730;2022-09-09T13:39:32;100192.81;;;24.18;74.50
13709;BME280;54933;51.908;7.730;2022-09-09T13:41:58;100194.44;;;24.19;74.73
13709;BME280;54933;51.908;7.730;2022-09-09T13:44:25;100191.72;;;24.19;75.03
13709;BME280;54933;51.908;7.730;2022-09-09T13:49:30;100189.59;;;24.21;75.21
13709;BME280;54933;51.908;7.730;2022-09-09T13:52:13;100177.91;;;24.20;75.44
13709;BME280;54933;51.908;7.730;2022-09-09T13:54:39;100184.16;;;24.21;75.62
13709;BME280;54933;51.908;7.730;2022-09-09T13:57:05;100186.88;;;24.21;76.14
13709;BME280;54933;51.908;7.730;2022-09-09T13:59:31;100182.50;;;24.20;76.20
13709;BME280;54933;51.908;7.730;2022-09-09T14:01:57;100192.31;;;24.21;76.14
13709;BME280;54933;51.908;7.730;2022-09-09T14:04:22;100192.31;;;24.21;76.17
13709;BME280;54933;51.908;7.730;2022-09-09T14:06:49;100194.19;;;24.20;76.17
13709;BME280;54933;51.908;7.730;2022-09-09T14:09:16;100189.59;;;24.21;75.94
13709;BME280;54933;51.908;7.730;2022-09-09T14:11:43;100184.16;;;24.21;75.75
13709;BME280;54933;51.908;7.730;2022-09-09T14:14:08;100183.66;;;24.24;75.37
13709;BME280;54933;51.908;7.730;2022-09-09T14:16:34;100180.94;;;24.24;75.31
13709;BME280;54933;51.908;7.730;2022-09-09T14:18:59;100189.09;;;24.24;75.39
13709;BME280;54933;51.908;7.730;2022-09-09T14:21:25;100187.44;;;24.23;75.34
13709;BME280;54933;51.908;7.730;2022-09-09T14:23:51;100187.44;;;24.23;75.28
13709;BME280;54933;51.908;7.730;2022-09-09T14:26:20;100192.06;;;24.22;75.14
13709;BME280;54933;51.908;7.730;2022-09-09T14:28:46;100196.13;;;24.25;74.64
13709;BME280;54933;51.908;7.730;2022-09-09T14:31:12;100203.22;;;24.26;74.51
13709;BME280;54933;51.908;7.730;2022-09-09T14:33:38;100207.00;;;24.25;74.29
13709;BME280;54933;51.908;7.730;2022-09-09T14:36:04;100217.88;;;24.25;74.27
13709;BME280;54933;51.908;7.730;2022-09-09T14:38:31;100220.84;;;24.23;74.43
13709;BME280;54933;51.908;7.730;2022-09-09T14:40:58;100228.72;;;24.25;74.33
13709;BME280;54933;51.908;7.730;2022-09-09T14:43:24;100239.34;;;24.26;74.08
13709;BME280;54933;51.908;7.730;2022-09-09T14:45:49;100230.38;;;24.26;74.03
13709;BME280;54933;51.908;7.730;2022-09-09T14:48:16;100238.03;;;24.29;73.67
13709;BME280;54933;51.908;7.730;2022-09-09T14:50:42;100243.47;;;24.29;73.66
13709;BME280;54933;51.908;7.730;2022-09-09T14:53:08;100238.03;;;24.29;73.74
13709;BME280;54933;51.908;7.730;2022-09-09T14:55:34;100240.50;;;24.30;74.27